createdAt,value
2019-04-04T00:02:00.350Z,31.12
2019-04-04T00:04:07.121Z,30.99
2019-04-04T00:06:13.863Z,31.02
2019-04-04T00:08:20.571Z,31.00
2019-04-04T00:10:27.340Z,31.06
2019-04-04T00:12:34.254Z,31.06
2019-04-04T00:14:43.479Z,31.17
2019-04-04T00:16:49.666Z,31.17
2019-04-04T00:18:58.431Z,31.22
2019-04-04T00:21:04.884Z,31.30
2019-04-04T00:23:11.671Z,31.42
2019-04-04T00:25:18.809Z,31.23
2019-04-04T00:27:25.740Z,31.29
2019-04-04T00:29:32.454Z,31.22
2019-04-04T00:31:39.198Z,31.34
2019-04-04T00:33:45.922Z,31.39
2019-04-04T00:35:53.468Z,31.34
2019-04-04T00:38:00.216Z,31.30
2019-04-04T00:40:10.782Z,31.48
2019-04-04T00:44:30.219Z,31.65
2019-04-04T00:46:36.885Z,31.74
2019-04-04T00:48:43.602Z,31.67
2019-04-04T00:50:50.247Z,31.82
2019-04-04T00:52:56.853Z,31.68
2019-04-04T00:55:03.457Z,31.68
2019-04-04T00:57:10.311Z,31.69
2019-04-04T00:59:16.956Z,31.80
2019-04-04T01:01:26.137Z,31.77
2019-04-04T01:03:32.009Z,31.95
2019-04-04T01:05:39.596Z,32.00
2019-04-04T01:07:46.365Z,32.00
2019-04-04T01:09:52.997Z,32.05
2019-04-04T01:12:00.013Z,32.24
2019-04-04T01:14:07.307Z,32.37
2019-04-04T01:16:14.114Z,32.28
2019-04-04T01:18:20.852Z,32.46
2019-04-04T01:20:27.593Z,32.31
2019-04-04T01:22:34.394Z,32.52
2019-04-04T01:24:41.134Z,32.48
2019-04-04T01:26:47.896Z,32.41
2019-04-04T01:28:54.601Z,32.33
2019-04-04T01:31:01.381Z,32.63
2019-04-04T01:33:08.125Z,32.77
2019-04-04T01:35:14.844Z,32.90
2019-04-04T01:37:21.530Z,32.78
2019-04-04T01:39:30.846Z,32.75
2019-04-04T01:41:37.048Z,32.92
2019-04-04T01:43:43.830Z,33.06
2019-04-04T01:45:52.047Z,33.14
2019-04-04T01:47:58.825Z,33.18
2019-04-04T01:50:06.774Z,33.30
2019-04-04T01:52:13.505Z,33.11
2019-04-04T01:54:20.212Z,33.15
2019-04-04T01:56:26.971Z,33.21
2019-04-04T01:58:33.710Z,33.55
2019-04-04T02:00:40.426Z,33.51
2019-04-04T02:02:47.230Z,33.40
2019-04-04T02:04:55.858Z,33.36
2019-04-04T02:07:06.232Z,33.30
2019-04-04T02:09:13.042Z,33.41
2019-04-04T02:11:20.003Z,33.61
2019-04-04T02:13:28.330Z,33.62
2019-04-04T02:15:35.070Z,33.75
2019-04-04T02:17:42.822Z,33.97
2019-04-04T02:19:49.489Z,33.97
2019-04-04T02:21:57.900Z,34.01
2019-04-04T02:24:04.623Z,34.05
2019-04-04T02:26:11.451Z,34.08
2019-04-04T02:28:18.217Z,34.04
2019-04-04T02:30:25.057Z,34.16
2019-04-04T02:32:31.760Z,34.10
2019-04-04T02:34:38.581Z,34.16
2019-04-04T02:36:48.723Z,34.10
2019-04-04T02:39:10.198Z,34.19
2019-04-04T02:41:16.922Z,34.28
2019-04-04T02:43:27.325Z,34.37
2019-04-04T02:45:32.138Z,34.41
2019-04-04T02:47:38.882Z,34.59
2019-04-04T02:49:45.626Z,34.67
2019-04-04T02:51:52.395Z,34.71
2019-04-04T02:53:59.084Z,34.81
2019-04-04T02:56:05.754Z,35.01
2019-04-04T02:58:15.099Z,35.08
2019-04-04T03:00:20.915Z,35.31
2019-04-04T03:02:27.604Z,35.36
2019-04-04T03:04:34.385Z,35.59
2019-04-04T03:06:41.033Z,35.76
2019-04-04T03:08:47.896Z,35.94
2019-04-04T03:10:54.659Z,36.08
2019-04-04T03:13:01.307Z,36.20
2019-04-04T03:15:10.248Z,36.49
2019-04-04T03:17:16.214Z,36.45
2019-04-04T03:19:22.756Z,36.55
2019-04-04T03:21:29.512Z,36.64
2019-04-04T03:23:36.198Z,36.81
2019-04-04T03:25:44.670Z,36.80
2019-04-04T03:27:51.416Z,37.04
2019-04-04T03:29:58.381Z,37.11
2019-04-04T03:32:05.162Z,37.26
2019-04-04T03:34:12.891Z,37.32
2019-04-04T03:36:20.125Z,37.58
2019-04-04T03:38:26.881Z,37.33
2019-04-04T03:40:33.604Z,37.43
2019-04-04T03:42:44.057Z,37.47
2019-04-04T03:44:52.850Z,37.62
2019-04-04T03:46:57.202Z,37.73
2019-04-04T03:49:03.971Z,37.85
2019-04-04T03:51:10.760Z,37.86
2019-04-04T03:53:18.615Z,37.87
2019-04-04T03:55:27.369Z,38.15
2019-04-04T03:57:33.843Z,37.82
2019-04-04T03:59:40.524Z,38.02
2019-04-04T04:01:47.293Z,37.87
2019-04-04T04:03:55.507Z,37.66
2019-04-04T04:06:02.687Z,37.81
2019-04-04T04:09:29.500Z,37.84
2019-04-04T04:11:37.444Z,37.92
2019-04-04T04:13:49.010Z,37.90
2019-04-04T04:15:56.219Z,37.84
2019-04-04T04:18:02.973Z,37.99
2019-04-04T04:20:09.741Z,37.90
2019-04-04T04:22:19.300Z,37.73
2019-04-04T04:24:26.745Z,37.61
2019-04-04T04:26:33.483Z,37.50
2019-04-04T04:28:40.248Z,37.50
2019-04-04T04:30:47.001Z,37.41
2019-04-04T04:32:57.040Z,37.43
2019-04-04T04:35:02.277Z,37.22
2019-04-04T04:37:09.044Z,37.00
2019-04-04T04:39:16.956Z,36.95
2019-04-04T04:41:23.767Z,36.90
2019-04-04T04:43:33.561Z,36.71
2019-04-04T04:45:41.724Z,36.44
2019-04-04T04:47:48.559Z,36.42
2019-04-04T04:49:55.695Z,36.23
2019-04-04T04:52:02.536Z,36.01
2019-04-04T04:54:09.229Z,35.83
2019-04-04T04:56:17.520Z,35.74
2019-04-04T04:58:24.361Z,35.54
2019-04-04T05:00:31.349Z,35.33
2019-04-04T05:02:38.170Z,35.20
2019-04-04T05:04:45.809Z,35.07
2019-04-04T05:06:54.526Z,34.69
2019-04-04T05:09:01.651Z,34.43
2019-04-04T05:11:09.495Z,33.11
2019-04-04T05:13:16.208Z,31.63
2019-04-04T05:15:22.946Z,30.18
2019-04-04T05:17:29.691Z,28.99
2019-04-04T05:19:36.416Z,28.55
2019-04-04T05:21:43.158Z,28.06
2019-04-04T05:23:49.897Z,27.16
2019-04-04T05:25:56.656Z,26.67
2019-04-04T05:28:06.061Z,25.93
2019-04-04T05:30:12.051Z,25.62
2019-04-04T05:32:21.037Z,25.55
2019-04-04T05:34:28.336Z,24.81
2019-04-04T05:36:36.747Z,24.53
2019-04-04T05:38:46.874Z,24.57
2019-04-04T05:40:53.267Z,23.91
2019-04-04T05:43:03.914Z,23.36
2019-04-04T05:45:13.950Z,23.30
2019-04-04T05:47:19.036Z,22.68
2019-04-04T05:49:25.789Z,22.55
2019-04-04T05:51:32.602Z,22.87
2019-04-04T05:53:39.271Z,23.33
2019-04-04T05:55:45.961Z,22.97
2019-04-04T05:57:52.710Z,22.50
2019-04-04T05:59:59.451Z,21.18
2019-04-04T06:02:06.205Z,21.83
2019-04-04T06:04:12.988Z,21.67
2019-04-04T06:06:21.002Z,21.27
2019-04-04T06:08:29.508Z,21.11
2019-04-04T06:10:36.296Z,21.76
2019-04-04T06:12:42.990Z,20.94
2019-04-04T06:14:49.717Z,20.65
2019-04-04T06:16:56.605Z,20.26
2019-04-04T06:19:03.277Z,20.57
2019-04-04T06:21:11.072Z,21.22
2019-04-04T06:23:20.446Z,20.08
2019-04-04T06:25:26.201Z,20.37
2019-04-04T06:27:32.938Z,19.94
2019-04-04T06:29:39.645Z,20.13
2019-04-04T06:31:46.425Z,19.45
2019-04-04T06:33:53.115Z,19.41
2019-04-04T06:36:00.009Z,19.04
2019-04-04T06:38:06.985Z,18.88
2019-04-04T06:40:13.936Z,18.38
2019-04-04T06:42:21.827Z,17.40
2019-04-04T06:44:29.597Z,16.51
2019-04-04T06:46:36.268Z,16.50
2019-04-04T06:48:43.042Z,17.26
2019-04-04T06:50:49.929Z,17.61
2019-04-04T06:52:56.829Z,16.68
2019-04-04T06:55:04.684Z,16.20
2019-04-04T06:57:11.715Z,16.88
2019-04-04T06:59:18.448Z,16.75
2019-04-04T07:01:25.475Z,17.10
2019-04-04T07:03:32.203Z,17.93
2019-04-04T07:05:39.034Z,17.01
2019-04-04T07:07:45.825Z,15.72
2019-04-04T07:09:52.496Z,16.63
2019-04-04T07:11:59.261Z,16.79
2019-04-04T07:14:06.426Z,16.84
2019-04-04T07:16:13.187Z,17.39
2019-04-04T07:18:19.928Z,18.37
2019-04-04T07:20:28.376Z,18.89
2019-04-04T07:22:35.154Z,17.94
2019-04-04T07:24:41.906Z,18.22
2019-04-04T07:26:48.703Z,17.17
2019-04-04T07:28:55.421Z,16.80
2019-04-04T07:31:02.534Z,16.27
2019-04-04T07:33:12.698Z,18.63
2019-04-04T07:35:21.068Z,18.72
2019-04-04T07:37:28.057Z,18.23
2019-04-04T07:39:34.882Z,18.03
2019-04-04T07:41:44.763Z,18.51
2019-04-04T07:43:51.617Z,19.59
2019-04-04T07:46:01.358Z,21.34
2019-04-04T07:48:07.581Z,22.84
2019-04-04T07:50:14.615Z,23.27
2019-04-04T07:52:21.441Z,23.65
2019-04-04T07:54:28.312Z,25.21
2019-04-04T07:56:35.422Z,26.17
2019-04-04T07:58:42.123Z,26.56
2019-04-04T08:00:48.938Z,26.70
2019-04-04T08:02:56.800Z,26.39
2019-04-04T08:05:03.988Z,26.37
2019-04-04T08:07:10.731Z,26.83
2019-04-04T08:09:17.598Z,27.10
2019-04-04T08:11:24.306Z,26.97
2019-04-04T08:13:31.084Z,27.03
2019-04-04T08:15:37.845Z,26.86
2019-04-04T08:17:44.743Z,27.04
2019-04-04T08:19:59.511Z,27.46
2019-04-04T08:22:01.080Z,27.65
2019-04-04T08:24:09.491Z,27.83
2019-04-04T08:26:16.799Z,27.27
2019-04-04T08:28:23.460Z,27.07
2019-04-04T08:30:30.319Z,27.15
2019-04-04T08:32:37.283Z,27.18
2019-04-04T08:34:43.978Z,27.33
2019-04-04T08:36:50.682Z,27.41
2019-04-04T08:38:57.517Z,27.22
2019-04-04T08:41:04.201Z,26.75
2019-04-04T08:43:10.975Z,26.70
2019-04-04T08:45:17.822Z,26.46
2019-04-04T08:47:25.199Z,26.35
2019-04-04T08:49:32.109Z,26.82
2019-04-04T08:51:38.775Z,26.98
2019-04-04T08:53:45.557Z,27.01
2019-04-04T08:55:52.345Z,26.98
2019-04-04T08:57:59.451Z,27.14
2019-04-04T09:00:08.714Z,26.96
2019-04-04T09:02:15.558Z,27.11
2019-04-04T09:04:24.231Z,27.32
2019-04-04T09:06:31.080Z,27.42
2019-04-04T09:08:37.980Z,27.08
2019-04-04T09:10:44.656Z,27.08
2019-04-04T09:12:51.390Z,27.58
2019-04-04T09:14:59.871Z,27.60
2019-04-04T09:17:06.600Z,27.48
2019-04-04T09:19:13.354Z,27.91
2019-04-04T09:21:20.067Z,27.78
2019-04-04T09:23:26.856Z,28.08
2019-04-04T09:25:33.649Z,28.15
2019-04-04T09:27:40.705Z,27.89
2019-04-04T09:29:47.470Z,28.13
2019-04-04T09:31:55.393Z,27.90
2019-04-04T09:34:02.181Z,27.90
2019-04-04T09:36:08.927Z,27.69
2019-04-04T09:38:15.622Z,27.83
2019-04-04T09:40:22.324Z,28.05
2019-04-04T09:42:30.411Z,28.49
2019-04-04T09:44:37.110Z,28.56
2019-04-04T09:46:43.896Z,28.39
2019-04-04T09:48:50.710Z,28.22
2019-04-04T09:50:57.672Z,28.43
2019-04-04T09:53:04.563Z,28.59
2019-04-04T09:55:12.723Z,28.46
2019-04-04T09:57:19.409Z,28.27
2019-04-04T09:59:26.324Z,28.46
2019-04-04T10:01:33.213Z,28.26
2019-04-04T10:03:39.968Z,28.25
2019-04-04T10:05:47.450Z,28.04
2019-04-04T10:07:54.405Z,28.12
2019-04-04T10:10:01.248Z,28.05
2019-04-04T10:12:09.254Z,27.90
2019-04-04T10:14:16.010Z,28.10
2019-04-04T10:16:24.435Z,27.98
2019-04-04T10:18:31.236Z,27.83
2019-04-04T10:20:38.211Z,27.83
2019-04-04T10:22:44.896Z,28.28
2019-04-04T10:24:51.738Z,28.14
2019-04-04T10:26:58.429Z,28.07
2019-04-04T10:29:05.196Z,28.28
2019-04-04T10:31:13.452Z,28.23
2019-04-04T10:33:20.133Z,28.51
2019-04-04T10:35:26.881Z,28.45
2019-04-04T10:37:33.742Z,28.43
2019-04-04T10:39:40.527Z,28.19
2019-04-04T10:41:50.846Z,28.19
2019-04-04T10:43:57.763Z,28.29
2019-04-04T10:46:04.571Z,28.37
2019-04-04T10:48:11.669Z,28.15
2019-04-04T10:50:18.547Z,27.78
2019-04-04T10:52:25.419Z,27.63
2019-04-04T10:54:32.313Z,27.43
2019-04-04T10:56:39.185Z,27.54
2019-04-04T10:58:45.940Z,27.71
2019-04-04T11:00:53.832Z,27.83
2019-04-04T11:03:00.685Z,28.06
2019-04-04T11:05:08.595Z,27.98
2019-04-04T11:07:15.301Z,27.88
2019-04-04T11:09:23.250Z,27.92
2019-04-04T11:11:30.012Z,27.84
2019-04-04T11:13:37.934Z,27.93
2019-04-04T11:15:44.775Z,28.26
2019-04-04T11:17:51.611Z,28.34
2019-04-04T11:19:58.433Z,27.94
2019-04-04T11:22:07.170Z,28.10
2019-04-04T11:24:13.962Z,27.85
2019-04-04T11:26:20.776Z,27.79
2019-04-04T11:28:27.490Z,27.71
2019-04-04T11:30:35.318Z,27.55
2019-04-04T11:32:43.314Z,27.89
2019-04-04T11:34:53.498Z,27.87
2019-04-04T11:36:58.552Z,28.12
2019-04-04T11:39:06.944Z,28.37
2019-04-04T11:41:14.501Z,28.28
2019-04-04T11:43:21.179Z,28.57
2019-04-04T11:45:27.925Z,28.47
2019-04-04T11:47:34.754Z,28.58
2019-04-04T11:49:41.604Z,28.06
2019-04-04T11:51:48.460Z,27.81
2019-04-04T11:53:57.681Z,27.74
2019-04-04T11:56:04.548Z,27.80
2019-04-04T11:58:12.933Z,27.44
2019-04-04T12:00:24.204Z,27.53
2019-04-04T12:02:32.737Z,27.56
2019-04-04T12:04:39.816Z,27.62
2019-04-04T12:06:47.262Z,27.31
2019-04-04T12:08:54.596Z,27.50
2019-04-04T12:11:01.621Z,27.70
2019-04-04T12:13:21.352Z,27.42
2019-04-04T12:15:21.609Z,27.45
2019-04-04T12:17:28.787Z,27.64
2019-04-04T12:19:36.099Z,27.46
2019-04-04T12:21:42.743Z,28.26
2019-04-04T12:23:51.577Z,27.64
2019-04-04T12:25:58.838Z,27.77
2019-04-04T12:28:05.978Z,28.02
2019-04-04T12:30:13.133Z,27.82
2019-04-04T12:32:19.842Z,28.50
2019-04-04T12:34:26.705Z,27.93
2019-04-04T12:36:33.465Z,28.11
2019-04-04T12:38:40.602Z,27.92
2019-04-04T12:40:47.422Z,28.01
2019-04-04T12:42:54.312Z,28.26
2019-04-04T12:45:01.888Z,28.13
2019-04-04T12:47:10.162Z,28.18
2019-04-04T12:49:16.827Z,27.77
2019-04-04T12:51:23.746Z,28.00
2019-04-04T12:53:32.624Z,28.02
2019-04-04T12:55:40.272Z,27.91
2019-04-04T12:57:47.872Z,28.19
2019-04-04T12:59:54.548Z,28.17
2019-04-04T13:02:01.459Z,28.40
2019-04-04T13:04:08.736Z,28.44
2019-04-04T13:06:15.472Z,28.37
2019-04-04T13:08:22.251Z,27.77
2019-04-04T13:10:33.382Z,28.07
2019-04-04T13:12:38.661Z,28.19
2019-04-04T13:14:45.504Z,28.12
2019-04-04T13:16:53.159Z,28.02
2019-04-04T13:19:00.212Z,28.34
2019-04-04T13:21:07.126Z,28.40
2019-04-04T13:23:13.990Z,28.40
2019-04-04T13:25:21.855Z,28.25
2019-04-04T13:27:28.817Z,28.32
2019-04-04T13:29:35.610Z,28.24
2019-04-04T13:31:42.421Z,28.36
2019-04-04T13:33:50.079Z,28.37
2019-04-04T13:35:56.882Z,28.42
2019-04-04T13:38:03.591Z,28.51
2019-04-04T13:40:11.245Z,28.66
2019-04-04T13:42:18.815Z,28.69
2019-04-04T13:44:25.570Z,28.59
2019-04-04T13:46:32.336Z,28.61
2019-04-04T13:48:39.217Z,28.80
2019-04-04T13:50:46.286Z,28.81
2019-04-04T13:52:55.821Z,28.88
2019-04-04T13:55:05.125Z,28.70
2019-04-04T13:57:12.666Z,28.68
2019-04-04T13:59:19.339Z,28.89
2019-04-04T14:01:26.297Z,28.93
2019-04-04T14:03:33.546Z,28.56
2019-04-04T14:05:40.235Z,28.75
2019-04-04T14:07:47.010Z,28.79
2019-04-04T14:09:57.210Z,28.94
2019-04-04T14:12:05.495Z,29.19
2019-04-04T14:14:12.196Z,29.16
2019-04-04T14:16:19.546Z,29.36
2019-04-04T14:18:39.010Z,29.30
2019-04-04T14:20:35.688Z,29.25
2019-04-04T14:22:42.451Z,29.23
2019-04-04T14:24:49.293Z,29.24
2019-04-04T14:26:56.221Z,29.26
2019-04-04T14:29:04.497Z,29.27
2019-04-04T14:31:12.449Z,29.33
2019-04-04T14:33:21.715Z,29.58
2019-04-04T14:35:28.670Z,29.45
2019-04-04T14:37:35.447Z,29.60
2019-04-04T14:39:42.230Z,29.42
2019-04-04T14:41:49.007Z,29.58
2019-04-04T14:43:55.928Z,29.74
2019-04-04T14:46:04.305Z,29.67
2019-04-04T14:48:11.741Z,29.65
2019-04-04T14:50:18.515Z,29.74
2019-04-04T14:52:25.293Z,29.62
2019-04-04T14:54:31.965Z,29.93
2019-04-04T14:56:38.703Z,29.84
2019-04-04T14:58:45.573Z,29.97
2019-04-04T15:00:52.488Z,29.92
2019-04-04T15:02:59.252Z,30.12
2019-04-04T15:05:07.434Z,30.18
2019-04-04T15:07:14.776Z,30.02
2019-04-04T15:09:21.824Z,30.14
2019-04-04T15:11:29.382Z,30.25
2019-04-04T15:13:36.058Z,30.41
2019-04-04T15:16:10.877Z,30.40
2019-04-04T15:18:17.645Z,30.42
2019-04-04T15:20:25.468Z,30.28
2019-04-04T15:22:35.118Z,30.44
2019-04-04T15:24:45.005Z,30.65
2019-04-04T15:26:52.214Z,30.59
2019-04-04T15:29:00.430Z,30.73
2019-04-04T15:31:09.626Z,30.94
2019-04-04T15:33:16.392Z,30.93
2019-04-04T15:35:23.112Z,31.23
2019-04-04T15:37:29.931Z,31.13
2019-04-04T15:39:36.621Z,31.50
2019-04-04T15:41:44.168Z,31.37
2019-04-04T15:43:50.889Z,31.45
2019-04-04T15:45:58.205Z,31.51
2019-04-04T15:48:05.045Z,31.44
2019-04-04T15:50:12.451Z,31.57
2019-04-04T15:52:20.308Z,31.64
2019-04-04T15:54:27.134Z,31.74
2019-04-04T15:56:36.699Z,31.81
2019-04-04T15:58:45.224Z,32.13
2019-04-04T16:00:52.254Z,32.08
2019-04-04T16:03:00.396Z,32.26
2019-04-04T16:05:09.575Z,32.27
2019-04-04T16:07:16.319Z,32.34
2019-04-04T16:09:23.243Z,32.47
2019-04-04T16:11:30.130Z,32.58
2019-04-04T16:13:37.816Z,32.59
2019-04-04T16:15:45.466Z,32.62
2019-04-04T16:17:52.537Z,32.80
2019-04-04T16:19:59.324Z,32.87
2019-04-04T16:22:06.544Z,33.08
2019-04-04T16:24:13.281Z,33.21
2019-04-04T16:26:20.045Z,33.36
2019-04-04T16:28:26.727Z,33.53
2019-04-04T16:30:34.959Z,33.61
2019-04-04T16:32:41.646Z,33.76
2019-04-04T16:34:48.371Z,33.87
2019-04-04T16:36:55.151Z,33.77
2019-04-04T16:39:01.894Z,33.92
2019-04-04T16:41:10.155Z,34.24
2019-04-04T16:43:16.920Z,34.38
2019-04-04T16:45:23.676Z,34.31
2019-04-04T16:47:30.407Z,34.48
2019-04-04T16:49:38.334Z,34.43
2019-04-04T16:51:45.394Z,34.33
2019-04-04T16:53:52.189Z,34.46
2019-04-04T16:55:58.879Z,34.49
2019-04-04T16:58:05.830Z,34.55
2019-04-04T17:00:14.685Z,34.77
2019-04-04T17:02:21.722Z,34.86
2019-04-04T17:04:28.488Z,34.81
2019-04-04T17:06:35.263Z,34.82
2019-04-04T17:08:41.978Z,35.04
2019-04-04T17:10:49.437Z,34.99
2019-04-04T17:12:56.981Z,34.82
2019-04-04T17:15:04.961Z,35.16
2019-04-04T17:17:13.739Z,35.20
2019-04-04T17:19:20.533Z,35.02
2019-04-04T17:21:27.319Z,35.22
2019-04-04T17:23:34.384Z,35.44
2019-04-04T17:25:42.525Z,35.39
2019-04-04T17:27:55.218Z,35.15
2019-04-04T17:30:13.764Z,35.19
2019-04-04T17:32:17.916Z,34.85
2019-04-04T17:34:25.071Z,34.94
2019-04-04T17:36:32.099Z,34.97
2019-04-04T17:38:40.414Z,35.02
2019-04-04T17:40:47.392Z,34.79
2019-04-04T17:42:57.072Z,34.71
2019-04-04T17:45:09.392Z,34.96
2019-04-04T17:47:16.969Z,34.66
2019-04-04T17:49:31.799Z,34.66
2019-04-04T17:51:36.644Z,34.85
2019-04-04T17:53:43.500Z,34.98
2019-04-04T17:55:50.630Z,34.92
2019-04-04T17:57:57.917Z,34.88
2019-04-04T18:00:19.831Z,35.02
2019-04-04T18:02:26.583Z,35.07
2019-04-04T18:04:34.802Z,35.11
2019-04-04T18:06:41.568Z,35.03
2019-04-04T18:08:49.371Z,35.08
2019-04-04T18:10:56.260Z,34.96
2019-04-04T18:13:03.005Z,34.87
2019-04-04T18:15:11.610Z,34.82
2019-04-04T18:17:19.699Z,34.78
2019-04-04T18:19:26.444Z,34.80
2019-04-04T18:21:33.210Z,34.72
2019-04-04T18:23:40.023Z,34.78
2019-04-04T18:25:47.086Z,34.74
2019-04-04T18:27:53.838Z,34.80
2019-04-04T18:30:00.580Z,35.08
2019-04-04T18:32:07.363Z,35.14
2019-04-04T18:34:15.533Z,35.33
2019-04-04T18:36:22.389Z,35.23
2019-04-04T18:38:30.058Z,35.56
2019-04-04T18:40:38.775Z,35.61
2019-04-04T18:42:53.085Z,35.60
2019-04-04T18:44:56.604Z,35.71
2019-04-04T18:47:04.158Z,35.62
2019-04-04T18:49:10.976Z,35.69
2019-04-04T18:51:17.734Z,35.53
2019-04-04T18:53:24.491Z,35.39
2019-04-04T18:55:31.678Z,35.65
2019-04-04T18:57:38.510Z,35.52
2019-04-04T18:59:45.277Z,35.47
2019-04-04T19:01:52.166Z,35.47
2019-04-04T19:03:59.332Z,35.25
2019-04-04T19:06:08.591Z,35.47
2019-04-04T19:08:17.168Z,35.19
2019-04-04T19:10:24.023Z,35.19
2019-04-04T19:12:30.764Z,35.22
2019-04-04T19:14:38.141Z,35.17
2019-04-04T19:16:47.362Z,35.05
2019-04-04T19:18:54.925Z,35.47
2019-04-04T19:21:02.841Z,35.14
2019-04-04T19:23:10.312Z,34.95
2019-04-04T19:25:17.212Z,35.16
2019-04-04T19:27:24.016Z,34.97
2019-04-04T19:29:31.645Z,35.17
2019-04-04T19:31:38.508Z,34.75
2019-04-04T19:33:48.698Z,34.96
2019-04-04T19:35:57.245Z,35.12
2019-04-04T19:38:03.987Z,35.18
2019-04-04T19:40:11.285Z,35.09
2019-04-04T19:42:18.051Z,35.12
2019-04-04T19:44:25.922Z,35.10
2019-04-04T19:46:37.321Z,35.16
2019-04-04T19:48:42.721Z,35.06
2019-04-04T19:50:53.617Z,35.18
2019-04-04T19:53:00.441Z,35.11
2019-04-04T19:55:07.688Z,35.21
2019-04-04T19:57:16.739Z,35.22
2019-04-04T19:59:23.916Z,35.33
2019-04-04T20:01:32.161Z,35.37
2019-04-04T20:03:38.931Z,35.45
2019-04-04T20:05:45.715Z,35.36
2019-04-04T20:07:52.390Z,35.24
2019-04-04T20:10:00.717Z,35.25
2019-04-04T20:12:07.501Z,35.22
2019-04-04T20:14:16.879Z,35.26
2019-04-04T20:16:25.182Z,35.28
2019-04-04T20:18:31.972Z,35.29
2019-04-04T20:20:40.202Z,35.33
2019-04-04T20:22:48.484Z,35.29
2019-04-04T20:25:02.752Z,35.42
2019-04-04T20:27:09.506Z,35.26
2019-04-04T20:29:16.261Z,35.35
2019-04-04T20:31:25.265Z,35.34
2019-04-04T20:33:32.034Z,35.35
2019-04-04T20:35:40.628Z,35.17
2019-04-04T20:37:47.934Z,35.46
2019-04-04T20:39:56.521Z,35.51
2019-04-04T20:42:03.318Z,35.52
2019-04-04T20:44:11.321Z,35.73
2019-04-04T20:46:18.072Z,35.72
2019-04-04T20:48:24.752Z,35.50
2019-04-04T20:50:34.150Z,35.62
2019-04-04T20:52:40.972Z,35.61
2019-04-04T20:54:48.018Z,35.54
2019-04-04T20:56:54.910Z,35.71
2019-04-04T20:59:01.659Z,35.73
2019-04-04T21:01:09.883Z,35.80
2019-04-04T21:03:16.657Z,36.00
2019-04-04T21:05:23.478Z,35.94
2019-04-04T21:07:30.501Z,35.86
2019-04-04T21:09:37.292Z,35.87
2019-04-04T21:11:44.050Z,35.92
2019-04-04T21:13:56.249Z,36.04
2019-04-04T21:16:00.722Z,35.83
2019-04-04T21:18:09.052Z,35.85
2019-04-04T21:20:15.754Z,35.49
2019-04-04T21:31:07.336Z,35.78
2019-04-04T21:33:17.115Z,35.93
2019-04-04T21:35:24.466Z,35.96
2019-04-04T21:37:31.346Z,35.94
2019-04-04T21:39:38.456Z,35.83
2019-04-04T21:41:45.128Z,35.81
2019-04-04T21:43:53.353Z,35.93
2019-04-04T21:46:01.292Z,35.91
2019-04-04T21:48:08.689Z,36.01
2019-04-04T21:50:18.328Z,36.20
2019-04-04T21:52:25.062Z,36.21
2019-04-04T21:54:31.755Z,36.11
2019-04-04T21:56:38.492Z,36.02
2019-04-04T21:58:45.285Z,36.01
2019-04-04T22:00:55.075Z,36.05
2019-04-04T22:03:03.340Z,36.05
2019-04-04T22:05:10.804Z,36.11
2019-04-04T22:07:17.568Z,36.37
2019-04-04T22:09:24.307Z,36.07
2019-04-04T22:11:30.983Z,35.93
2019-04-04T22:13:37.767Z,36.08
2019-04-04T22:15:45.823Z,36.17
2019-04-04T22:17:52.519Z,35.86
2019-04-04T22:19:59.353Z,35.87
2019-04-04T22:22:06.031Z,35.89
2019-04-04T22:24:12.778Z,36.07
2019-04-04T22:26:19.565Z,35.87
2019-04-04T22:28:26.312Z,35.88
2019-04-04T22:30:33.048Z,35.91
2019-04-04T22:32:39.824Z,35.77
2019-04-04T22:34:46.560Z,35.68
2019-04-04T22:36:53.291Z,35.73
2019-04-04T22:39:00.076Z,35.87
2019-04-04T22:41:06.770Z,35.87
2019-04-04T22:43:13.435Z,35.87
2019-04-04T22:45:20.124Z,35.90
2019-04-04T22:47:26.924Z,35.94
2019-04-04T22:49:34.410Z,35.80
2019-04-04T22:51:41.182Z,36.03
2019-04-04T22:53:47.920Z,35.91
2019-04-04T22:55:54.661Z,36.06
2019-04-04T22:58:02.995Z,36.03
2019-04-04T23:00:10.259Z,36.05
2019-04-04T23:02:18.466Z,36.02
2019-04-04T23:04:25.331Z,36.10
2019-04-04T23:06:32.101Z,36.02
2019-04-04T23:08:38.783Z,36.10
2019-04-04T23:10:45.543Z,36.00
2019-04-04T23:12:52.236Z,36.06
2019-04-04T23:14:58.953Z,35.83
2019-04-04T23:19:48.242Z,36.08
2019-04-04T23:21:55.004Z,35.95
2019-04-04T23:24:02.155Z,36.11
2019-04-04T23:26:08.848Z,36.17
2019-04-04T23:28:15.543Z,36.28
2019-04-04T23:30:22.310Z,36.28
2019-04-04T23:32:29.038Z,36.41
2019-04-04T23:34:35.730Z,36.37
2019-04-04T23:36:42.480Z,36.37
2019-04-04T23:38:49.218Z,36.22
2019-04-04T23:40:55.987Z,36.44
2019-04-04T23:43:02.882Z,36.35
2019-04-04T23:45:10.242Z,36.59
2019-04-04T23:47:18.260Z,36.67
2019-04-04T23:49:25.090Z,36.59
2019-04-04T23:51:31.875Z,36.76
2019-04-04T23:53:38.689Z,36.72
2019-04-04T23:55:47.123Z,36.80
2019-04-04T23:57:54.779Z,36.87
